createdAt,value
2022-10-07T00:01:12.223Z,8.00
2022-10-07T00:03:42.243Z,8.00
2022-10-07T00:06:15.175Z,8.00
2022-10-07T00:08:46.185Z,7.90
2022-10-07T00:11:16.890Z,7.90
2022-10-07T00:13:47.407Z,7.90
2022-10-07T00:16:19.094Z,7.90
2022-10-07T00:18:52.147Z,7.90
2022-10-07T00:21:21.183Z,7.80
2022-10-07T00:23:49.689Z,7.80
2022-10-07T00:26:21.241Z,7.80
2022-10-07T00:28:50.553Z,7.80
2022-10-07T00:31:22.863Z,7.80
2022-10-07T00:33:53.188Z,7.80
2022-10-07T00:36:24.240Z,7.70
2022-10-07T00:38:55.968Z,7.70
2022-10-07T00:41:28.365Z,7.70
2022-10-07T00:43:57.425Z,7.70
2022-10-07T00:46:34.614Z,7.70
2022-10-07T00:49:12.054Z,7.60
2022-10-07T00:51:42.373Z,7.60
2022-10-07T00:54:16.465Z,7.60
2022-10-07T00:56:47.487Z,7.60
2022-10-07T00:59:17.585Z,7.60
2022-10-07T01:01:46.234Z,7.60
2022-10-07T01:04:17.209Z,7.50
2022-10-07T01:06:45.990Z,7.50
2022-10-07T01:09:15.689Z,7.50
2022-10-07T01:11:56.949Z,7.50
2022-10-07T01:14:43.836Z,7.50
2022-10-07T01:17:24.014Z,7.40
2022-10-07T01:20:23.809Z,7.40
2022-10-07T01:23:11.606Z,7.40
2022-10-07T01:26:15.686Z,7.40
2022-10-07T01:28:50.636Z,7.40
2022-10-07T01:31:26.274Z,7.30
2022-10-07T01:33:56.003Z,7.30
2022-10-07T01:36:27.283Z,7.30
2022-10-07T01:39:02.991Z,7.30
2022-10-07T01:41:33.195Z,7.30
2022-10-07T01:44:03.888Z,7.30
2022-10-07T01:46:36.037Z,7.20
2022-10-07T01:49:05.209Z,7.20
2022-10-07T01:51:40.788Z,7.20
2022-10-07T01:54:27.856Z,7.20
2022-10-07T01:57:14.407Z,7.20
2022-10-07T02:00:07.456Z,7.10
2022-10-07T02:03:38.184Z,7.10
2022-10-07T02:06:20.808Z,7.10
2022-10-07T02:08:54.639Z,7.10
2022-10-07T02:11:27.730Z,7.10
2022-10-07T02:14:13.186Z,7.00
2022-10-07T02:16:47.876Z,7.00
2022-10-07T02:19:22.944Z,7.00
2022-10-07T02:21:57.138Z,7.00
2022-10-07T02:24:30.159Z,7.00
2022-10-07T02:27:04.344Z,7.00
2022-10-07T02:29:38.017Z,7.00
2022-10-07T02:32:12.201Z,6.90
2022-10-07T02:34:45.902Z,6.90
2022-10-07T02:37:21.575Z,6.90
2022-10-07T02:39:49.669Z,6.90
2022-10-07T02:42:28.040Z,6.90
2022-10-07T02:45:02.486Z,6.90
2022-10-07T02:47:42.292Z,6.90
2022-10-07T02:50:17.126Z,6.80
2022-10-07T02:52:47.743Z,6.80
2022-10-07T02:55:22.677Z,6.80
2022-10-07T02:57:58.514Z,6.80
2022-10-07T03:00:29.320Z,6.80
2022-10-07T03:03:02.762Z,6.80
2022-10-07T03:05:54.563Z,6.90
2022-10-07T03:08:24.985Z,6.90
2022-10-07T03:10:53.677Z,6.90
2022-10-07T03:13:22.296Z,7.00
2022-10-07T03:15:54.352Z,7.00
2022-10-07T03:18:28.509Z,7.00
2022-10-07T03:21:16.088Z,7.10
2022-10-07T03:23:44.430Z,7.20
2022-10-07T03:26:13.499Z,7.20
2022-10-07T03:28:41.633Z,7.30
2022-10-07T03:31:14.261Z,7.30
2022-10-07T03:33:48.690Z,7.40
2022-10-07T03:36:16.814Z,7.40
2022-10-07T03:38:47.266Z,7.50
2022-10-07T03:41:16.436Z,7.50
2022-10-07T03:43:45.132Z,7.50
2022-10-07T03:46:16.716Z,7.50
2022-10-07T03:48:45.535Z,7.60
2022-10-07T03:51:15.112Z,7.60
2022-10-07T03:53:43.255Z,7.60
2022-10-07T03:56:12.248Z,7.70
2022-10-07T03:58:42.987Z,7.70
2022-10-07T04:01:15.012Z,7.70
2022-10-07T04:03:52.472Z,7.70
2022-10-07T04:06:22.566Z,7.80
2022-10-07T04:08:53.446Z,7.80
2022-10-07T04:11:22.319Z,7.80
2022-10-07T04:13:53.662Z,7.90
2022-10-07T04:16:24.129Z,7.90
2022-10-07T04:18:56.748Z,8.00
2022-10-07T04:21:28.228Z,8.00
2022-10-07T04:23:56.305Z,8.00
2022-10-07T04:26:24.489Z,8.00
2022-10-07T04:28:52.771Z,8.00
2022-10-07T04:31:23.800Z,8.00
2022-10-07T04:33:58.450Z,8.00
2022-10-07T04:36:33.815Z,8.00
2022-10-07T04:39:48.976Z,8.00
2022-10-07T04:42:30.311Z,8.00
2022-10-07T04:44:58.609Z,7.90
2022-10-07T04:47:26.965Z,7.90
2022-10-07T04:49:55.212Z,7.90
2022-10-07T04:52:26.606Z,7.90
2022-10-07T04:54:55.112Z,7.90
2022-10-07T04:57:23.582Z,7.80
2022-10-07T04:59:52.842Z,7.80
2022-10-07T05:02:23.113Z,7.80
2022-10-07T05:04:51.272Z,7.80
2022-10-07T05:07:19.605Z,7.80
2022-10-07T05:09:49.219Z,7.90
2022-10-07T05:12:18.217Z,7.90
2022-10-07T05:14:47.671Z,7.90
2022-10-07T05:17:16.782Z,7.90
2022-10-07T05:19:45.354Z,7.90
2022-10-07T05:22:13.508Z,7.90
2022-10-07T05:24:42.673Z,8.00
2022-10-07T05:27:14.843Z,8.00
2022-10-07T05:29:43.916Z,8.00
2022-10-07T05:32:12.163Z,8.10
2022-10-07T05:34:40.350Z,8.10
2022-10-07T05:37:08.554Z,8.20
2022-10-07T05:39:36.687Z,8.30
2022-10-07T05:42:14.805Z,8.30
2022-10-07T05:44:50.780Z,8.40
2022-10-07T05:47:20.485Z,8.50
2022-10-07T05:49:49.684Z,8.60
2022-10-07T05:52:21.049Z,8.60
2022-10-07T05:54:50.787Z,8.70
2022-10-07T05:57:20.423Z,8.80
2022-10-07T05:59:49.514Z,8.80
2022-10-07T06:02:19.195Z,8.90
2022-10-07T06:04:50.175Z,9.00
2022-10-07T06:07:21.443Z,9.00
2022-10-07T06:10:11.466Z,9.10
2022-10-07T06:12:59.994Z,9.20
2022-10-07T06:15:28.219Z,9.20
2022-10-07T06:17:56.610Z,9.30
2022-10-07T06:20:25.023Z,9.30
2022-10-07T06:22:55.303Z,9.30
2022-10-07T06:25:23.440Z,9.40
2022-10-07T06:27:57.260Z,9.50
2022-10-07T06:30:29.292Z,9.50
2022-10-07T06:32:57.799Z,9.60
2022-10-07T06:35:26.236Z,9.60
2022-10-07T06:37:55.695Z,9.70
2022-10-07T06:40:23.879Z,9.80
2022-10-07T06:42:54.126Z,9.90
2022-10-07T06:45:32.419Z,10.00
2022-10-07T06:48:01.511Z,10.10
2022-10-07T06:50:30.513Z,10.10
2022-10-07T06:52:58.815Z,10.20
2022-10-07T06:55:28.139Z,10.30
2022-10-07T06:57:58.935Z,10.40
2022-10-07T07:00:27.917Z,10.40
2022-10-07T07:02:56.833Z,10.50
2022-10-07T07:05:25.132Z,10.50
2022-10-07T07:07:53.591Z,10.60
2022-10-07T07:10:21.806Z,10.70
2022-10-07T07:12:54.549Z,10.80
2022-10-07T07:15:24.491Z,10.90
2022-10-07T07:17:52.664Z,10.90
2022-10-07T07:20:21.487Z,11.00
2022-10-07T07:22:52.309Z,11.10
2022-10-07T07:25:20.542Z,11.10
2022-10-07T07:27:52.459Z,11.10
2022-10-07T07:30:25.108Z,11.20
2022-10-07T07:32:56.477Z,11.20
2022-10-07T07:35:25.938Z,11.30
2022-10-07T07:37:55.133Z,11.30
2022-10-07T07:40:23.363Z,11.40
2022-10-07T07:42:51.568Z,11.40
2022-10-07T07:45:19.834Z,11.50
2022-10-07T07:47:49.557Z,11.50
2022-10-07T07:50:20.810Z,11.60
2022-10-07T07:52:51.893Z,11.60
2022-10-07T07:55:24.528Z,11.70
2022-10-07T07:57:52.667Z,11.70
2022-10-07T08:00:20.909Z,11.70
2022-10-07T08:03:05.182Z,11.80
2022-10-07T08:05:36.385Z,11.80
2022-10-07T08:08:04.895Z,11.90
2022-10-07T08:10:33.139Z,11.90
2022-10-07T08:13:01.218Z,12.00
2022-10-07T08:15:29.416Z,12.10
2022-10-07T08:17:57.565Z,12.20
2022-10-07T08:20:27.078Z,12.30
2022-10-07T08:22:58.922Z,12.40
2022-10-07T08:25:29.503Z,12.50
2022-10-07T08:27:58.814Z,12.60
2022-10-07T08:30:27.489Z,12.60
2022-10-07T08:33:00.399Z,12.60
2022-10-07T08:35:30.757Z,12.70
2022-10-07T08:37:58.870Z,12.80
2022-10-07T08:40:27.187Z,12.90
2022-10-07T08:42:55.528Z,13.00
2022-10-07T08:45:31.834Z,13.00
2022-10-07T08:48:04.214Z,13.10
2022-10-07T08:50:50.420Z,13.20
2022-10-07T08:53:27.288Z,13.30
2022-10-07T08:56:01.732Z,13.40
2022-10-07T08:58:55.941Z,13.50
2022-10-07T09:01:45.368Z,13.60
2022-10-07T09:04:32.981Z,13.70
2022-10-07T09:07:10.544Z,13.80
2022-10-07T09:09:43.740Z,13.90
2022-10-07T09:12:22.789Z,14.00
2022-10-07T09:14:56.579Z,14.00
2022-10-07T09:17:35.052Z,14.10
2022-10-07T09:20:16.401Z,14.20
2022-10-07T09:22:54.839Z,14.30
2022-10-07T09:25:26.183Z,14.40
2022-10-07T09:27:54.840Z,14.50
2022-10-07T09:30:24.203Z,14.60
2022-10-07T09:32:55.697Z,14.70
2022-10-07T09:35:26.947Z,14.70
2022-10-07T09:38:03.288Z,14.80
2022-10-07T09:41:00.643Z,14.90
2022-10-07T09:43:30.745Z,15.00
2022-10-07T09:46:00.641Z,15.10
2022-10-07T09:48:32.625Z,15.20
2022-10-07T09:51:15.378Z,15.30
2022-10-07T09:53:59.990Z,15.30
2022-10-07T09:56:39.682Z,15.40
2022-10-07T09:59:20.496Z,15.50
2022-10-07T10:01:54.762Z,15.60
2022-10-07T10:04:33.433Z,15.70
2022-10-07T10:07:07.013Z,15.80
2022-10-07T10:09:36.682Z,16.00
2022-10-07T10:12:17.324Z,16.10
2022-10-07T10:14:49.917Z,16.30
2022-10-07T10:17:34.556Z,16.50
2022-10-07T10:20:39.444Z,16.60
2022-10-07T10:23:30.908Z,16.80
2022-10-07T10:26:31.123Z,16.80
2022-10-07T10:29:13.728Z,16.90
2022-10-07T10:32:04.457Z,16.90
2022-10-07T10:34:42.585Z,16.90
2022-10-07T10:37:18.404Z,17.00
2022-10-07T10:40:03.005Z,17.10
2022-10-07T10:42:45.380Z,17.20
2022-10-07T10:45:35.489Z,17.30
2022-10-07T10:48:30.026Z,17.40
2022-10-07T10:51:11.778Z,17.50
2022-10-07T10:53:57.120Z,17.60
2022-10-07T10:56:38.030Z,17.70
2022-10-07T10:59:34.334Z,17.90
2022-10-07T11:02:31.393Z,18.00
2022-10-07T11:05:06.281Z,18.10
2022-10-07T11:07:40.410Z,18.20
2022-10-07T11:10:21.093Z,18.30
2022-10-07T11:12:56.881Z,18.40
2022-10-07T11:15:31.388Z,18.60
2022-10-07T11:18:07.822Z,18.80
2022-10-07T11:20:44.843Z,18.90
2022-10-07T11:23:23.459Z,19.00
2022-10-07T11:25:58.257Z,19.20
2022-10-07T11:28:30.545Z,19.40
2022-10-07T11:31:10.001Z,19.50
2022-10-07T11:33:47.347Z,19.70
2022-10-07T11:36:21.640Z,20.00
2022-10-07T11:38:53.538Z,20.20
2022-10-07T11:41:30.886Z,20.60
2022-10-07T11:44:04.650Z,21.10
2022-10-07T11:46:40.645Z,21.60
2022-10-07T11:49:18.113Z,21.90
2022-10-07T11:52:00.476Z,22.20
2022-10-07T11:54:39.244Z,22.30
2022-10-07T11:57:07.910Z,22.50
2022-10-07T11:59:46.179Z,22.70
2022-10-07T12:02:49.104Z,23.20
2022-10-07T12:05:58.823Z,23.50
2022-10-07T12:08:36.500Z,23.80
2022-10-07T12:11:50.491Z,24.10
2022-10-07T12:14:36.349Z,24.10
2022-10-07T12:17:28.178Z,24.00
2022-10-07T12:20:47.700Z,23.80
2022-10-07T12:23:44.396Z,23.70
2022-10-07T12:26:48.689Z,23.80
2022-10-07T12:29:49.242Z,24.10
2022-10-07T12:33:01.416Z,24.30
2022-10-07T12:35:54.199Z,24.90
2022-10-07T12:38:27.086Z,25.80
2022-10-07T12:41:25.534Z,26.70
2022-10-07T12:44:08.155Z,27.40
2022-10-07T12:46:47.723Z,27.90
2022-10-07T12:49:26.143Z,28.30
2022-10-07T12:51:58.800Z,28.70
2022-10-07T12:54:33.640Z,29.00
2022-10-07T12:57:03.660Z,29.20
2022-10-07T12:59:57.700Z,29.40
2022-10-07T13:03:27.665Z,29.40
2022-10-07T13:06:42.846Z,29.30
2022-10-07T13:10:02.309Z,29.40
2022-10-07T13:12:48.418Z,29.50
2022-10-07T13:15:33.805Z,29.50
2022-10-07T13:18:16.472Z,29.60
2022-10-07T13:21:13.467Z,29.80
2022-10-07T13:23:41.669Z,30.20
2022-10-07T13:26:14.747Z,30.60
2022-10-07T13:28:50.116Z,30.80
2022-10-07T13:31:23.573Z,31.00
2022-10-07T13:33:53.259Z,30.80
2022-10-07T13:36:24.916Z,29.90
2022-10-07T13:38:54.965Z,29.00
2022-10-07T13:41:28.647Z,28.20
2022-10-07T13:44:02.872Z,27.50
2022-10-07T13:46:35.116Z,27.00
2022-10-07T13:49:04.858Z,26.80
2022-10-07T13:51:36.462Z,26.50
2022-10-07T13:54:07.802Z,26.30
2022-10-07T13:56:43.119Z,26.10
2022-10-07T13:59:18.024Z,26.00
2022-10-07T14:01:49.688Z,25.90
2022-10-07T14:04:26.054Z,25.90
2022-10-07T14:07:00.953Z,25.80
2022-10-07T14:09:45.008Z,25.90
2022-10-07T14:12:21.777Z,25.90
2022-10-07T14:14:55.583Z,25.90
2022-10-07T14:17:33.738Z,25.80
2022-10-07T14:20:05.666Z,25.90
2022-10-07T14:22:41.003Z,26.10
2022-10-07T14:25:21.409Z,26.60
2022-10-07T14:28:15.986Z,27.00
2022-10-07T14:31:04.180Z,27.30
2022-10-07T14:34:06.178Z,27.80
2022-10-07T14:36:36.007Z,28.00
2022-10-07T14:39:23.376Z,27.70
2022-10-07T14:41:51.828Z,27.80
2022-10-07T14:44:21.679Z,28.20
2022-10-07T14:46:49.897Z,28.80
2022-10-07T14:49:18.228Z,29.40
2022-10-07T14:51:47.860Z,29.80
2022-10-07T14:54:16.053Z,29.70
2022-10-07T14:56:44.250Z,29.50
2022-10-07T14:59:15.821Z,29.70
2022-10-07T15:01:45.357Z,30.00
2022-10-07T15:04:13.513Z,29.80
2022-10-07T15:06:41.864Z,29.20
2022-10-07T15:09:13.403Z,28.60
2022-10-07T15:11:42.292Z,28.10
2022-10-07T15:14:12.091Z,27.80
2022-10-07T15:16:41.557Z,27.70
2022-10-07T15:19:11.124Z,27.80
2022-10-07T15:21:39.243Z,27.30
2022-10-07T15:24:07.759Z,26.80
2022-10-07T15:26:35.871Z,26.40
2022-10-07T15:29:07.820Z,25.90
2022-10-07T15:31:37.932Z,25.50
2022-10-07T15:34:06.332Z,25.30
2022-10-07T15:36:35.933Z,25.30
2022-10-07T15:39:04.791Z,25.40
2022-10-07T15:41:36.488Z,25.40
2022-10-07T15:44:10.626Z,25.40
2022-10-07T15:46:38.839Z,25.30
2022-10-07T15:49:07.546Z,24.90
2022-10-07T15:51:37.247Z,24.50
2022-10-07T15:54:07.447Z,24.20
2022-10-07T15:56:35.708Z,23.90
2022-10-07T15:59:04.458Z,23.60
2022-10-07T16:01:33.020Z,23.30
2022-10-07T16:04:03.345Z,22.90
2022-10-07T16:06:35.084Z,22.70
2022-10-07T16:09:06.639Z,22.40
2022-10-07T16:11:35.789Z,22.20
2022-10-07T16:14:04.656Z,21.90
2022-10-07T16:16:33.735Z,21.60
2022-10-07T16:19:02.109Z,21.30
2022-10-07T16:21:33.037Z,21.10
2022-10-07T16:24:06.354Z,20.80
2022-10-07T16:26:37.445Z,20.50
2022-10-07T16:29:26.242Z,20.30
2022-10-07T16:31:58.948Z,20.00
2022-10-07T16:34:29.062Z,19.70
2022-10-07T16:36:58.743Z,19.50
2022-10-07T16:39:28.381Z,19.30
2022-10-07T16:41:56.829Z,19.00
2022-10-07T16:44:25.628Z,18.80
2022-10-07T16:46:56.740Z,18.60
2022-10-07T16:49:27.391Z,18.40
2022-10-07T16:51:56.382Z,18.20
2022-10-07T16:54:25.096Z,18.10
2022-10-07T16:56:54.541Z,17.90
2022-10-07T16:59:25.269Z,17.70
2022-10-07T17:01:56.484Z,17.60
2022-10-07T17:04:25.802Z,17.40
2022-10-07T17:06:54.247Z,17.30
2022-10-07T17:09:24.514Z,17.20
2022-10-07T17:11:53.994Z,17.10
2022-10-07T17:14:23.793Z,16.90
2022-10-07T17:16:56.608Z,16.80
2022-10-07T17:19:27.578Z,16.70
2022-10-07T17:21:58.467Z,16.50
2022-10-07T17:24:26.692Z,16.40
2022-10-07T17:26:56.789Z,16.30
2022-10-07T17:29:26.621Z,16.20
2022-10-07T17:31:55.111Z,16.10
2022-10-07T17:34:23.874Z,16.00
2022-10-07T17:36:52.257Z,16.00
2022-10-07T17:39:20.681Z,15.90
2022-10-07T17:41:49.024Z,15.80
2022-10-07T17:44:18.900Z,15.70
2022-10-07T17:46:48.830Z,15.60
2022-10-07T17:49:17.047Z,15.50
2022-10-07T17:51:45.373Z,15.40
2022-10-07T17:54:15.073Z,15.40
2022-10-07T17:56:47.657Z,15.30
2022-10-07T17:59:18.015Z,15.20
2022-10-07T18:01:46.281Z,15.20
2022-10-07T18:04:22.538Z,15.10
2022-10-07T18:06:53.059Z,15.00
2022-10-07T18:09:24.063Z,15.00
2022-10-07T18:12:09.829Z,14.90
2022-10-07T18:14:56.945Z,14.80
2022-10-07T18:17:25.278Z,14.70
2022-10-07T18:19:53.736Z,14.60
2022-10-07T18:22:22.355Z,14.60
2022-10-07T18:24:50.671Z,14.50
2022-10-07T18:27:21.631Z,14.50
2022-10-07T18:29:51.241Z,14.40
2022-10-07T18:32:19.386Z,14.40
2022-10-07T18:34:48.619Z,14.30
2022-10-07T18:37:16.838Z,14.30
2022-10-07T18:39:45.059Z,14.20
2022-10-07T18:42:13.501Z,14.20
2022-10-07T18:44:41.623Z,14.10
2022-10-07T18:47:11.145Z,14.10
2022-10-07T18:49:39.252Z,14.10
2022-10-07T18:52:07.373Z,14.10
2022-10-07T18:54:35.501Z,14.10
2022-10-07T18:57:03.672Z,14.10
2022-10-07T18:59:31.764Z,14.00
2022-10-07T19:01:59.943Z,13.90
2022-10-07T19:04:31.067Z,13.90
2022-10-07T19:06:59.216Z,13.90
2022-10-07T19:09:27.301Z,13.80
2022-10-07T19:11:55.706Z,13.70
2022-10-07T19:14:25.834Z,13.70
2022-10-07T19:16:54.442Z,13.70
2022-10-07T19:19:25.690Z,13.60
2022-10-07T19:21:56.218Z,13.60
2022-10-07T19:24:45.522Z,13.50
2022-10-07T19:27:14.202Z,13.40
2022-10-07T19:29:42.367Z,13.40
2022-10-07T19:32:10.586Z,13.40
2022-10-07T19:34:38.728Z,13.30
2022-10-07T19:37:08.252Z,13.30
2022-10-07T19:39:36.813Z,13.20
2022-10-07T19:42:05.370Z,13.20
2022-10-07T19:44:33.514Z,13.20
2022-10-07T19:47:02.804Z,13.10
2022-10-07T19:49:30.980Z,13.10
2022-10-07T19:51:59.113Z,13.10
2022-10-07T19:54:30.365Z,13.00
2022-10-07T19:56:58.441Z,13.00
2022-10-07T19:59:26.756Z,13.00
2022-10-07T20:01:58.851Z,13.00
2022-10-07T20:04:32.051Z,12.90
2022-10-07T20:07:00.117Z,12.90
2022-10-07T20:09:29.713Z,12.90
2022-10-07T20:11:57.782Z,12.80
2022-10-07T20:14:25.986Z,12.80
2022-10-07T20:16:56.517Z,12.80
2022-10-07T20:19:25.150Z,12.70
2022-10-07T20:21:53.431Z,12.70
2022-10-07T20:24:21.558Z,12.70
2022-10-07T20:26:51.001Z,12.70
2022-10-07T20:29:24.095Z,12.70
2022-10-07T20:31:53.851Z,12.60
2022-10-07T20:34:22.212Z,12.60
2022-10-07T20:36:50.513Z,12.60
2022-10-07T20:39:38.751Z,12.60
2022-10-07T20:42:25.398Z,12.50
2022-10-07T20:44:54.489Z,12.50
2022-10-07T20:47:27.978Z,12.50
2022-10-07T20:49:57.883Z,12.40
2022-10-07T20:52:28.570Z,12.40
2022-10-07T20:54:56.761Z,12.40
2022-10-07T20:57:33.127Z,12.30
2022-10-07T21:00:01.423Z,12.30
2022-10-07T21:02:29.650Z,12.30
2022-10-07T21:04:59.239Z,12.20
2022-10-07T21:07:27.704Z,12.20
2022-10-07T21:09:58.779Z,12.20
2022-10-07T21:12:28.225Z,12.20
2022-10-07T21:15:00.389Z,12.10
2022-10-07T21:17:28.470Z,12.10
2022-10-07T21:19:56.802Z,12.10
2022-10-07T21:22:25.427Z,12.10
2022-10-07T21:24:53.581Z,12.10
2022-10-07T21:27:21.709Z,12.10
2022-10-07T21:29:51.138Z,12.10
2022-10-07T21:32:19.404Z,12.00
2022-10-07T21:34:47.483Z,12.00
2022-10-07T21:37:15.602Z,12.00
2022-10-07T21:39:43.729Z,12.00
2022-10-07T21:42:11.907Z,12.00
2022-10-07T21:44:40.096Z,12.00
2022-10-07T21:47:09.576Z,11.90
2022-10-07T21:49:37.698Z,11.90
2022-10-07T21:52:05.910Z,11.90
2022-10-07T21:54:33.976Z,11.90
2022-10-07T21:57:04.450Z,11.90
2022-10-07T21:59:35.001Z,11.90
2022-10-07T22:02:03.194Z,11.90
2022-10-07T22:04:32.792Z,11.90
2022-10-07T22:07:18.806Z,11.90
2022-10-07T22:09:46.931Z,11.80
2022-10-07T22:12:15.467Z,11.80
2022-10-07T22:14:44.501Z,11.80
2022-10-07T22:17:14.204Z,11.80
2022-10-07T22:19:43.692Z,11.70
2022-10-07T22:22:12.855Z,11.70
2022-10-07T22:24:41.839Z,11.70
2022-10-07T22:27:10.255Z,11.60
2022-10-07T22:29:38.527Z,11.60
2022-10-07T22:32:06.722Z,11.60
2022-10-07T22:34:52.317Z,11.60
2022-10-07T22:37:21.882Z,11.50
2022-10-07T22:39:50.079Z,11.50
2022-10-07T22:42:18.334Z,11.50
2022-10-07T22:44:46.438Z,11.40
2022-10-07T22:47:16.272Z,11.50
2022-10-07T22:49:44.932Z,11.50
2022-10-07T22:52:13.037Z,11.50
2022-10-07T22:54:42.576Z,11.60
2022-10-07T22:57:10.675Z,11.60
2022-10-07T22:59:38.835Z,11.60
2022-10-07T23:02:09.194Z,11.50
2022-10-07T23:04:37.349Z,11.50
2022-10-07T23:07:05.453Z,11.50
2022-10-07T23:09:33.527Z,11.50
2022-10-07T23:12:04.591Z,11.50
2022-10-07T23:14:32.877Z,11.40
2022-10-07T23:17:01.027Z,11.40
2022-10-07T23:19:29.132Z,11.40
2022-10-07T23:21:57.232Z,11.40
2022-10-07T23:24:28.173Z,11.40
2022-10-07T23:26:56.444Z,11.30
2022-10-07T23:29:26.510Z,11.30
2022-10-07T23:31:54.634Z,11.30
2022-10-07T23:34:23.279Z,11.30
2022-10-07T23:36:55.206Z,11.30
2022-10-07T23:39:23.608Z,11.30
2022-10-07T23:41:51.743Z,11.30
2022-10-07T23:44:19.951Z,11.30
2022-10-07T23:46:51.550Z,11.30
2022-10-07T23:49:22.492Z,11.30
2022-10-07T23:51:50.725Z,11.30
2022-10-07T23:54:18.835Z,11.30
2022-10-07T23:56:46.997Z,11.30
2022-10-07T23:59:15.131Z,11.40
